createdAt,value
2018-11-10T00:01:34.461Z,26.80
2018-11-10T00:04:02.254Z,27.93
2018-11-10T00:06:29.905Z,26.50
2018-11-10T00:08:57.580Z,27.80
2018-11-10T00:11:25.260Z,26.20
2018-11-10T00:13:52.897Z,29.47
2018-11-10T00:16:20.625Z,27.97
2018-11-10T00:18:48.337Z,26.83
2018-11-10T00:21:16.086Z,27.97
2018-11-10T00:23:43.866Z,28.50
2018-11-10T00:26:11.549Z,28.10
2018-11-10T00:28:39.293Z,27.73
2018-11-10T00:31:06.969Z,27.53
2018-11-10T00:33:34.721Z,27.83
2018-11-10T00:36:02.449Z,26.70
2018-11-10T00:38:30.189Z,27.83
2018-11-10T00:40:57.977Z,28.63
2018-11-10T00:43:25.752Z,27.93
2018-11-10T00:45:53.461Z,27.43
2018-11-10T00:48:21.205Z,28.20
2018-11-10T00:50:48.960Z,27.27
2018-11-10T00:53:16.647Z,27.17
2018-11-10T00:55:44.352Z,25.43
2018-11-10T00:58:12.089Z,25.33
2018-11-10T01:00:39.709Z,25.07
2018-11-10T01:03:07.470Z,25.20
2018-11-10T01:05:35.219Z,25.57
2018-11-10T01:08:02.929Z,25.57
2018-11-10T01:10:30.619Z,26.37
2018-11-10T01:12:58.240Z,27.87
2018-11-10T01:15:26.916Z,25.50
2018-11-10T01:17:54.651Z,26.53
2018-11-10T01:20:22.438Z,26.00
2018-11-10T01:22:50.101Z,23.80
2018-11-10T01:25:17.800Z,24.67
2018-11-10T01:27:45.501Z,24.83
2018-11-10T01:30:14.580Z,25.70
2018-11-10T01:32:43.190Z,23.77
2018-11-10T01:35:11.081Z,27.03
2018-11-10T01:37:38.745Z,24.30
2018-11-10T01:40:08.969Z,25.40
2018-11-10T01:42:36.713Z,26.80
2018-11-10T01:45:06.731Z,22.80
2018-11-10T01:47:34.499Z,25.17
2018-11-10T01:50:02.245Z,21.83
2018-11-10T01:52:29.910Z,21.97
2018-11-10T01:54:57.620Z,25.00
2018-11-10T01:57:25.533Z,25.97
2018-11-10T01:59:53.303Z,24.40
2018-11-10T02:02:20.961Z,25.93
2018-11-10T02:04:48.661Z,25.27
2018-11-10T02:07:16.356Z,27.57
2018-11-10T02:09:44.052Z,26.93
2018-11-10T02:12:14.276Z,27.40
2018-11-10T02:14:42.177Z,28.43
2018-11-10T02:17:09.865Z,27.60
2018-11-10T02:19:37.572Z,26.07
2018-11-10T02:22:05.312Z,25.83
2018-11-10T02:24:33.097Z,24.27
2018-11-10T02:27:00.833Z,24.67
2018-11-10T02:29:28.534Z,27.60
2018-11-10T02:31:56.252Z,28.60
2018-11-10T02:34:28.784Z,27.37
2018-11-10T02:36:56.657Z,28.63
2018-11-10T02:39:24.373Z,28.83
2018-11-10T02:41:52.177Z,28.03
2018-11-10T02:44:19.928Z,28.93
2018-11-10T02:46:47.597Z,27.77
2018-11-10T02:49:15.333Z,26.30
2018-11-10T02:51:42.993Z,26.33
2018-11-10T02:54:10.681Z,28.43
2018-11-10T02:56:38.433Z,27.87
2018-11-10T02:59:06.589Z,27.77
2018-11-10T03:01:34.237Z,27.87
2018-11-10T03:04:01.967Z,28.13
2018-11-10T03:06:29.605Z,27.33
2018-11-10T03:08:57.356Z,27.03
2018-11-10T03:11:25.013Z,27.80
2018-11-10T03:13:52.677Z,27.70
2018-11-10T03:16:20.459Z,29.47
2018-11-10T03:18:48.140Z,26.40
2018-11-10T03:21:15.867Z,28.53
2018-11-10T03:23:43.628Z,28.53
2018-11-10T03:26:11.293Z,27.50
2018-11-10T03:28:39.037Z,25.83
2018-11-10T03:31:06.721Z,27.20
2018-11-10T03:33:34.450Z,27.73
2018-11-10T03:36:02.177Z,26.37
2018-11-10T03:38:29.933Z,26.97
2018-11-10T03:40:57.625Z,27.07
2018-11-10T03:43:25.320Z,26.77
2018-11-10T03:45:52.992Z,28.70
2018-11-10T03:48:20.736Z,27.37
2018-11-10T03:50:48.382Z,26.93
2018-11-10T03:53:16.072Z,23.57
2018-11-10T03:55:43.773Z,28.23
2018-11-10T03:58:11.484Z,26.53
2018-11-10T04:00:39.208Z,26.97
2018-11-10T04:03:06.933Z,25.83
2018-11-10T04:05:34.635Z,26.17
2018-11-10T04:08:02.380Z,23.70
2018-11-10T04:10:30.133Z,26.97
2018-11-10T04:12:57.870Z,24.73
2018-11-10T04:15:25.714Z,26.47
2018-11-10T04:17:53.373Z,26.77
2018-11-10T04:20:21.137Z,25.80
2018-11-10T04:22:48.881Z,26.50
2018-11-10T04:25:16.612Z,21.03
2018-11-10T04:27:44.461Z,26.27
2018-11-10T04:30:12.125Z,26.07
2018-11-10T04:32:39.780Z,26.20
2018-11-10T04:35:07.805Z,25.33
2018-11-10T04:37:35.723Z,25.53
2018-11-10T04:40:03.693Z,26.77
2018-11-10T04:42:31.422Z,26.37
2018-11-10T04:44:59.108Z,24.47
2018-11-10T04:47:26.836Z,26.70
2018-11-10T04:49:54.654Z,24.20
2018-11-10T04:52:22.221Z,26.23
2018-11-10T04:54:49.845Z,26.10
2018-11-10T04:57:17.609Z,25.77
2018-11-10T04:59:45.285Z,27.83
2018-11-10T05:02:13.002Z,25.23
2018-11-10T05:04:40.737Z,25.60
2018-11-10T05:07:08.443Z,26.07
2018-11-10T05:09:36.226Z,28.10
2018-11-10T05:12:04.145Z,26.57
2018-11-10T05:14:31.838Z,29.30
2018-11-10T05:16:59.589Z,28.17
2018-11-10T05:19:27.292Z,26.97
2018-11-10T05:21:55.001Z,28.83
2018-11-10T05:24:23.105Z,27.87
2018-11-10T05:26:50.760Z,30.63
2018-11-10T05:29:18.493Z,31.87
2018-11-10T05:31:46.184Z,29.60
2018-11-10T05:34:13.905Z,31.23
2018-11-10T05:36:41.588Z,30.73
2018-11-10T05:39:09.837Z,30.90
2018-11-10T05:41:37.590Z,29.43
2018-11-10T05:44:05.305Z,31.50
2018-11-10T05:46:33.052Z,33.30
2018-11-10T05:49:00.828Z,30.17
2018-11-10T05:51:28.589Z,29.53
2018-11-10T05:53:56.236Z,33.50
2018-11-10T05:56:23.903Z,31.37
2018-11-10T05:58:51.624Z,30.70
2018-11-10T06:01:19.292Z,31.97
2018-11-10T06:03:46.986Z,32.70
2018-11-10T06:06:14.628Z,30.97
2018-11-10T06:08:42.356Z,31.57
2018-11-10T06:11:10.057Z,32.77
2018-11-10T06:13:37.784Z,33.67
2018-11-10T06:16:05.787Z,32.83
2018-11-10T06:18:33.449Z,31.53
2018-11-10T06:21:01.118Z,33.07
2018-11-10T06:23:28.862Z,32.20
2018-11-10T06:25:56.561Z,32.27
2018-11-10T06:28:24.197Z,33.10
2018-11-10T06:30:52.156Z,32.60
2018-11-10T06:33:19.853Z,31.37
2018-11-10T06:35:47.560Z,32.37
2018-11-10T06:38:15.217Z,31.93
2018-11-10T06:40:42.866Z,33.87
2018-11-10T06:43:10.513Z,32.87
2018-11-10T06:45:38.240Z,30.93
2018-11-10T06:48:06.197Z,33.87
2018-11-10T06:50:34.309Z,32.37
2018-11-10T06:53:02.823Z,33.23
2018-11-10T06:55:30.720Z,33.37
2018-11-10T06:57:58.685Z,33.90
2018-11-10T07:00:26.512Z,33.07
2018-11-10T07:02:54.438Z,35.03
2018-11-10T07:05:22.377Z,32.53
2018-11-10T07:07:50.108Z,33.40
2018-11-10T07:10:17.801Z,33.10
2018-11-10T07:12:45.507Z,34.60
2018-11-10T07:15:13.261Z,34.53
2018-11-10T07:17:41.088Z,34.53
2018-11-10T07:20:08.802Z,34.07
2018-11-10T07:22:36.574Z,32.70
2018-11-10T07:25:05.155Z,34.17
2018-11-10T07:27:32.832Z,33.80
2018-11-10T07:30:00.473Z,34.67
2018-11-10T07:32:28.903Z,31.93
2018-11-10T07:34:56.615Z,31.00
2018-11-10T07:37:24.405Z,32.43
2018-11-10T07:39:53.128Z,32.60
2018-11-10T07:42:21.737Z,33.33
2018-11-10T07:44:49.428Z,31.83
2018-11-10T07:47:17.832Z,30.37
2018-11-10T07:49:46.236Z,32.50
2018-11-10T07:52:13.925Z,32.67
2018-11-10T07:54:41.605Z,33.70
2018-11-10T07:57:09.328Z,31.90
2018-11-10T07:59:36.988Z,29.97
2018-11-10T08:02:04.972Z,31.97
2018-11-10T08:04:32.606Z,30.63
2018-11-10T08:07:00.293Z,30.50
2018-11-10T08:09:27.988Z,31.57
2018-11-10T08:11:55.652Z,30.37
2018-11-10T08:14:23.359Z,28.97
2018-11-10T08:16:51.810Z,29.80
2018-11-10T08:19:19.528Z,29.87
2018-11-10T08:21:47.764Z,29.27
2018-11-10T08:24:15.409Z,27.13
2018-11-10T08:26:43.125Z,27.87
2018-11-10T08:29:10.916Z,26.40
2018-11-10T08:31:38.761Z,27.57
2018-11-10T08:34:06.510Z,27.10
2018-11-10T08:36:34.213Z,23.77
2018-11-10T08:39:02.346Z,23.43
2018-11-10T08:41:29.999Z,26.73
2018-11-10T08:43:58.074Z,24.97
2018-11-10T08:46:25.735Z,25.70
2018-11-10T08:48:53.580Z,24.40
2018-11-10T08:51:21.244Z,24.30
2018-11-10T08:53:48.977Z,25.43
2018-11-10T08:56:17.221Z,23.03
2018-11-10T08:58:48.652Z,22.93
2018-11-10T09:01:16.948Z,24.53
2018-11-10T09:03:45.736Z,25.90
2018-11-10T09:06:13.452Z,23.90
2018-11-10T09:08:41.325Z,23.03
2018-11-10T09:11:09.229Z,23.80
2018-11-10T09:13:37.006Z,24.43
2018-11-10T09:16:04.783Z,23.10
2018-11-10T09:18:32.461Z,20.63
2018-11-10T09:21:00.264Z,22.53
2018-11-10T09:23:28.040Z,24.33
2018-11-10T09:25:55.791Z,22.10
2018-11-10T09:28:23.462Z,23.97
2018-11-10T09:30:51.266Z,23.20
2018-11-10T09:33:18.925Z,24.67
2018-11-10T09:35:46.664Z,24.07
2018-11-10T09:38:14.373Z,24.27
2018-11-10T09:40:42.085Z,24.17
2018-11-10T09:43:09.794Z,24.50
2018-11-10T09:45:37.516Z,23.83
2018-11-10T09:48:05.566Z,24.83
2018-11-10T09:50:33.320Z,23.67
2018-11-10T09:53:01.039Z,25.57
2018-11-10T09:55:28.734Z,22.73
2018-11-10T09:57:56.405Z,22.37
2018-11-10T10:00:24.135Z,21.90
2018-11-10T10:02:51.989Z,20.90
2018-11-10T10:05:19.516Z,21.67
2018-11-10T10:07:47.192Z,20.17
2018-11-10T10:10:16.377Z,22.57
2018-11-10T10:12:44.592Z,21.33
2018-11-10T10:15:13.624Z,19.03
2018-11-10T10:17:42.416Z,21.07
2018-11-10T10:20:13.180Z,21.40
2018-11-10T10:22:41.104Z,21.30
2018-11-10T10:25:12.460Z,20.43
2018-11-10T10:27:40.229Z,19.93
2018-11-10T10:30:14.237Z,19.80
2018-11-10T10:32:42.633Z,19.93
2018-11-10T10:35:10.720Z,20.20
2018-11-10T10:37:38.380Z,18.43
2018-11-10T10:40:08.358Z,19.13
2018-11-10T10:42:36.130Z,18.27
2018-11-10T10:45:05.448Z,18.87
2018-11-10T10:47:33.103Z,20.00
2018-11-10T10:50:00.820Z,18.13
2018-11-10T10:52:28.629Z,17.63
2018-11-10T10:54:56.345Z,19.30
2018-11-10T10:57:24.077Z,19.07
2018-11-10T10:59:51.737Z,17.60
2018-11-10T11:02:25.077Z,17.23
2018-11-10T11:04:54.117Z,17.07
2018-11-10T11:07:22.785Z,17.70
2018-11-10T11:09:50.457Z,17.50
2018-11-10T11:12:18.156Z,17.53
2018-11-10T11:14:45.810Z,17.63
2018-11-10T11:17:13.515Z,17.90
2018-11-10T11:19:41.345Z,16.27
2018-11-10T11:22:09.046Z,16.53
2018-11-10T11:24:37.212Z,16.83
2018-11-10T11:27:05.194Z,16.23
2018-11-10T11:29:36.454Z,15.93
2018-11-10T11:32:04.988Z,16.77
2018-11-10T11:34:32.745Z,16.27
2018-11-10T11:37:00.501Z,15.33
2018-11-10T11:39:28.238Z,16.50
2018-11-10T11:41:55.938Z,16.67
2018-11-10T11:44:23.584Z,16.23
2018-11-10T11:46:51.284Z,15.77
2018-11-10T11:49:18.985Z,15.50
2018-11-10T11:51:46.668Z,16.33
2018-11-10T11:54:14.333Z,15.63
2018-11-10T11:56:42.147Z,15.17
2018-11-10T11:59:09.773Z,15.40
2018-11-10T12:01:37.470Z,15.33
2018-11-10T12:04:05.369Z,15.27
2018-11-10T12:06:33.088Z,14.70
2018-11-10T12:09:00.852Z,15.23
2018-11-10T12:11:28.688Z,15.13
2018-11-10T12:13:56.396Z,15.87
2018-11-10T12:16:27.637Z,14.77
2018-11-10T12:18:51.832Z,14.30
2018-11-10T12:21:19.549Z,14.93
2018-11-10T12:23:47.312Z,13.63
2018-11-10T12:26:14.996Z,15.43
2018-11-10T12:28:42.915Z,15.07
2018-11-10T12:31:10.694Z,14.77
2018-11-10T12:33:38.377Z,14.93
2018-11-10T12:36:06.224Z,15.43
2018-11-10T12:38:33.994Z,13.10
2018-11-10T12:41:01.701Z,14.77
2018-11-10T12:43:29.362Z,13.77
2018-11-10T12:45:57.272Z,12.57
2018-11-10T12:48:24.988Z,13.33
2018-11-10T12:50:52.674Z,14.73
2018-11-10T12:53:20.425Z,14.40
2018-11-10T12:55:48.145Z,12.43
2018-11-10T12:58:15.823Z,11.87
2018-11-10T13:00:43.516Z,13.00
2018-11-10T13:03:11.225Z,11.67
2018-11-10T13:05:38.952Z,12.37
2018-11-10T13:08:06.645Z,13.67
2018-11-10T13:10:34.442Z,11.40
2018-11-10T13:13:02.145Z,11.90
2018-11-10T13:15:30.177Z,10.60
2018-11-10T13:17:57.912Z,12.10
2018-11-10T13:20:25.633Z,11.10
2018-11-10T13:22:53.255Z,11.70
2018-11-10T13:25:20.987Z,12.27
2018-11-10T13:27:48.669Z,11.63
2018-11-10T13:30:16.284Z,12.07
2018-11-10T13:32:43.996Z,11.33
2018-11-10T13:35:11.819Z,11.47
2018-11-10T13:37:40.044Z,13.00
2018-11-10T13:40:08.429Z,10.97
2018-11-10T13:42:36.176Z,11.40
2018-11-10T13:45:05.070Z,11.17
2018-11-10T13:47:32.797Z,11.57
2018-11-10T13:50:01.309Z,12.30
2018-11-10T13:52:29.304Z,10.83
2018-11-10T13:54:56.697Z,11.53
2018-11-10T13:57:24.767Z,10.80
2018-11-10T13:59:52.459Z,10.97
2018-11-10T14:02:20.133Z,11.63
2018-11-10T14:04:47.812Z,10.40
2018-11-10T14:07:15.452Z,10.97
2018-11-10T14:09:43.069Z,9.60
2018-11-10T14:12:10.754Z,9.73
2018-11-10T14:14:38.396Z,11.13
2018-11-10T14:17:06.152Z,10.90
2018-11-10T14:19:33.960Z,11.70
2018-11-10T14:22:01.617Z,10.27
2018-11-10T14:24:29.367Z,10.60
2018-11-10T14:26:57.078Z,10.73
2018-11-10T14:29:24.773Z,9.93
2018-11-10T14:31:52.434Z,9.33
2018-11-10T14:34:20.094Z,10.30
2018-11-10T14:36:47.858Z,10.60
2018-11-10T14:39:15.593Z,9.93
2018-11-10T14:41:43.377Z,9.83
2018-11-10T14:44:11.162Z,11.17
2018-11-10T14:46:38.848Z,10.03
2018-11-10T14:49:07.117Z,10.90
2018-11-10T14:51:34.923Z,11.07
2018-11-10T14:54:02.925Z,10.10
2018-11-10T14:56:30.620Z,9.93
2018-11-10T14:58:58.326Z,10.40
2018-11-10T15:01:26.080Z,10.37
2018-11-10T15:03:53.770Z,10.47
2018-11-10T15:06:21.541Z,9.87
2018-11-10T15:08:49.209Z,9.93
2018-11-10T15:11:16.860Z,11.17
2018-11-10T15:13:44.600Z,10.50
2018-11-10T15:16:12.248Z,10.13
2018-11-10T15:18:39.864Z,11.43
2018-11-10T15:21:07.615Z,10.83
2018-11-10T15:23:35.268Z,10.20
2018-11-10T15:26:02.947Z,9.83
2018-11-10T15:28:30.630Z,9.77
2018-11-10T15:30:58.297Z,10.47
2018-11-10T15:33:25.988Z,9.90
2018-11-10T15:35:53.633Z,10.67
2018-11-10T15:38:21.572Z,10.50
2018-11-10T15:40:49.298Z,10.90
2018-11-10T15:43:17.021Z,10.47
2018-11-10T15:45:44.708Z,11.93
2018-11-10T15:48:12.426Z,11.37
2018-11-10T15:50:40.217Z,10.97
2018-11-10T15:53:07.833Z,11.13
2018-11-10T15:55:35.510Z,10.57
2018-11-10T15:58:03.199Z,11.27
2018-11-10T16:00:30.848Z,11.57
2018-11-10T16:02:58.573Z,11.10
2018-11-10T16:05:26.309Z,11.53
2018-11-10T16:07:53.948Z,10.07
2018-11-10T16:10:21.840Z,12.90
2018-11-10T16:12:49.461Z,12.30
2018-11-10T16:15:17.701Z,11.67
2018-11-10T16:17:45.453Z,12.03
2018-11-10T16:20:15.108Z,11.90
2018-11-10T16:22:44.182Z,12.00
2018-11-10T16:25:11.846Z,11.70
2018-11-10T16:27:43.927Z,13.00
2018-11-10T16:30:13.268Z,11.07
2018-11-10T16:32:41.108Z,11.63
2018-11-10T16:35:09.068Z,10.90
2018-11-10T16:37:36.760Z,10.30
2018-11-10T16:40:07.890Z,10.83
2018-11-10T16:42:35.865Z,10.00
2018-11-10T16:45:03.937Z,10.53
2018-11-10T16:47:31.673Z,10.47
2018-11-10T16:49:59.373Z,11.63
2018-11-10T16:52:27.084Z,10.10
2018-11-10T16:54:54.825Z,9.80
2018-11-10T16:57:22.477Z,11.27
2018-11-10T16:59:50.128Z,10.20
2018-11-10T17:02:17.900Z,8.97
2018-11-10T17:04:45.561Z,12.17
2018-11-10T17:07:13.321Z,12.03
2018-11-10T17:09:40.972Z,11.20
2018-11-10T17:12:08.733Z,11.67
2018-11-10T17:14:36.500Z,10.63
2018-11-10T17:17:04.579Z,11.87
2018-11-10T17:19:32.223Z,10.90
2018-11-10T17:22:00.043Z,11.03
2018-11-10T17:24:27.609Z,11.13
2018-11-10T17:26:55.294Z,10.87
2018-11-10T17:29:22.989Z,10.77
2018-11-10T17:31:50.769Z,11.40
2018-11-10T17:34:18.562Z,11.50
2018-11-10T17:36:46.285Z,10.77
2018-11-10T17:39:14.137Z,10.87
2018-11-10T17:41:41.753Z,11.03
2018-11-10T17:44:10.028Z,11.17
2018-11-10T17:46:37.649Z,12.00
2018-11-10T17:49:05.464Z,10.90
2018-11-10T17:51:33.207Z,10.97
2018-11-10T17:54:00.909Z,10.33
2018-11-10T17:56:28.848Z,10.43
2018-11-10T17:58:56.552Z,11.10
2018-11-10T18:01:24.218Z,12.67
2018-11-10T18:03:51.892Z,9.13
2018-11-10T18:06:19.532Z,11.30
2018-11-10T18:08:47.290Z,10.80
2018-11-10T18:11:15.105Z,11.47
2018-11-10T18:13:42.864Z,10.53
2018-11-10T18:16:10.701Z,11.37
2018-11-10T18:18:38.452Z,11.27
2018-11-10T18:21:06.141Z,11.20
2018-11-10T18:23:33.925Z,11.70
2018-11-10T18:26:01.623Z,11.37
2018-11-10T18:28:29.290Z,11.13
2018-11-10T18:30:57.035Z,11.27
2018-11-10T18:33:24.760Z,10.17
2018-11-10T18:35:52.503Z,10.97
2018-11-10T18:38:20.229Z,11.10
2018-11-10T18:40:48.144Z,10.67
2018-11-10T18:43:15.868Z,10.33
2018-11-10T18:45:43.493Z,10.50
2018-11-10T18:48:11.327Z,10.93
2018-11-10T18:50:39.000Z,9.70
2018-11-10T18:53:06.679Z,10.60
2018-11-10T18:55:34.337Z,9.93
2018-11-10T18:58:02.121Z,9.97
2018-11-10T19:00:29.697Z,10.73
2018-11-10T19:02:57.650Z,11.37
2018-11-10T19:05:25.322Z,12.00
2018-11-10T19:07:53.100Z,11.43
2018-11-10T19:10:20.865Z,11.87
2018-11-10T19:12:48.810Z,10.80
2018-11-10T19:15:18.539Z,10.60
2018-11-10T19:17:46.345Z,11.30
2018-11-10T19:20:14.606Z,11.67
2018-11-10T19:22:42.315Z,11.93
2018-11-10T19:25:11.577Z,12.43
2018-11-10T19:27:39.321Z,10.97
2018-11-10T19:30:11.078Z,10.97
2018-11-10T19:32:38.730Z,11.70
2018-11-10T19:35:06.492Z,11.40
2018-11-10T19:37:34.148Z,11.30
2018-11-10T19:40:01.960Z,11.33
2018-11-10T19:42:29.748Z,11.37
2018-11-10T19:44:57.540Z,11.73
2018-11-10T19:47:25.264Z,12.57
2018-11-10T19:49:52.925Z,12.60
2018-11-10T19:52:20.558Z,11.77
2018-11-10T19:54:48.324Z,12.13
2018-11-10T19:57:16.364Z,11.80
2018-11-10T19:59:44.041Z,11.33
2018-11-10T20:02:13.889Z,11.00
2018-11-10T20:04:41.621Z,11.30
2018-11-10T20:07:09.369Z,9.90
2018-11-10T20:09:37.205Z,10.97
2018-11-10T20:12:17.641Z,10.83
2018-11-10T20:14:45.310Z,11.27
2018-11-10T20:17:13.013Z,9.63
2018-11-10T20:19:41.983Z,9.53
2018-11-10T20:22:09.551Z,9.53
2018-11-10T20:24:41.311Z,9.47
2018-11-10T20:27:09.129Z,8.83
2018-11-10T20:29:36.821Z,8.33
2018-11-10T20:32:04.673Z,7.60
2018-11-10T20:34:32.381Z,5.20
2018-11-10T20:37:00.125Z,4.70
2018-11-10T20:39:27.810Z,4.97
2018-11-10T20:41:55.488Z,3.97
2018-11-10T20:44:23.257Z,3.73
2018-11-10T20:46:50.949Z,3.70
2018-11-10T20:49:19.129Z,3.63
2018-11-10T20:51:46.820Z,3.70
2018-11-10T20:54:14.538Z,4.13
2018-11-10T20:56:43.049Z,3.70
2018-11-10T20:59:12.007Z,3.50
2018-11-10T21:01:39.734Z,3.50
2018-11-10T21:04:09.334Z,3.67
2018-11-10T21:06:38.839Z,3.43
2018-11-10T21:09:15.728Z,3.53
2018-11-10T21:11:43.624Z,3.63
2018-11-10T21:14:11.368Z,2.93
2018-11-10T21:16:39.211Z,3.10
2018-11-10T21:19:08.613Z,2.93
2018-11-10T21:21:37.123Z,3.30
2018-11-10T21:24:05.405Z,3.20
2018-11-10T21:26:33.134Z,3.00
2018-11-10T21:29:01.084Z,2.60
2018-11-10T21:31:28.743Z,2.97
2018-11-10T21:33:56.512Z,3.40
2018-11-10T21:36:24.104Z,3.80
2018-11-10T21:38:51.814Z,3.63
2018-11-10T21:41:19.898Z,3.80
2018-11-10T21:43:47.836Z,3.60
2018-11-10T21:46:15.535Z,4.23
2018-11-10T21:51:15.612Z,5.23
2018-11-10T21:53:47.889Z,5.60
2018-11-10T21:56:15.747Z,4.83
2018-11-10T21:58:44.205Z,4.93
2018-11-10T22:01:12.393Z,4.67
2018-11-10T22:03:40.353Z,5.33
2018-11-10T22:06:08.162Z,5.90
2018-11-10T22:08:35.816Z,6.90
2018-11-10T22:11:04.228Z,7.83
2018-11-10T22:13:31.942Z,8.63
2018-11-10T22:15:59.780Z,9.37
2018-11-10T22:18:27.369Z,9.53
2018-11-10T22:20:55.396Z,9.73
2018-11-10T22:23:23.320Z,11.27
2018-11-10T22:25:51.158Z,11.50
2018-11-10T22:28:19.420Z,11.37
2018-11-10T22:30:47.070Z,10.27
2018-11-10T22:33:14.916Z,10.73
2018-11-10T22:35:42.633Z,12.47
2018-11-10T22:38:10.248Z,12.53
2018-11-10T22:40:37.930Z,12.37
2018-11-10T22:43:06.580Z,12.60
2018-11-10T22:45:34.488Z,12.73
2018-11-10T22:48:02.397Z,12.40
2018-11-10T22:50:30.052Z,12.00
2018-11-10T22:52:57.712Z,11.50
2018-11-10T22:55:25.817Z,12.27
2018-11-10T22:57:53.593Z,10.70
2018-11-10T23:00:28.165Z,11.43
2018-11-10T23:02:58.406Z,12.10
2018-11-10T23:05:27.214Z,12.47
2018-11-10T23:07:55.193Z,12.00
2018-11-10T23:10:23.233Z,11.47
2018-11-10T23:12:51.901Z,11.73
2018-11-10T23:15:19.589Z,12.93
2018-11-10T23:17:47.870Z,12.50
2018-11-10T23:20:17.407Z,11.80
2018-11-10T23:22:45.232Z,10.93
2018-11-10T23:25:14.125Z,10.77
2018-11-10T23:27:41.873Z,10.60
2018-11-10T23:30:14.893Z,10.90
2018-11-10T23:32:42.553Z,11.20
2018-11-10T23:35:10.834Z,10.40
2018-11-10T23:37:38.805Z,11.37
2018-11-10T23:40:09.417Z,11.83
2018-11-10T23:42:37.247Z,10.27
2018-11-10T23:45:06.382Z,8.80
2018-11-10T23:47:34.178Z,8.97
2018-11-10T23:50:01.985Z,8.90
2018-11-10T23:52:29.704Z,10.47
2018-11-10T23:54:57.903Z,9.30
2018-11-10T23:57:26.117Z,8.97
2018-11-10T23:59:53.848Z,7.67
